Time;durP1;ratioP1;P1;durP2;ratioP2;P2;SDS_P1;SDS_P2;PMS_P1;PMS_P2;Temp;Humidity;BMP_temperature;BMP_pressure;BME280_temperature;BME280_humidity;BME280_pressure;Samples;Min_cycle;Max_cycle;Signal;HPM_P1;HPM_P2
2023/10/10 00:01:02;;;;;;;3.80;1.48;;;20.60;77.20;;;;;;6280540;22;20019;-76
2023/10/10 00:03:28;;;;;;;5.38;1.60;;;20.60;77.00;;;;;;6280702;22;20019;-76
2023/10/10 00:05:55;;;;;;;2.75;1.27;;;20.60;77.00;;;;;;6280894;22;20026;-76
2023/10/10 00:08:27;;;;;;;3.05;1.30;;;20.70;77.00;;;;;;6279747;22;20086;-76
2023/10/10 00:10:55;;;;;;;3.83;1.25;;;20.60;76.90;;;;;;6281050;22;20042;-76
2023/10/10 00:13:23;;;;;;;4.22;1.40;;;20.60;76.90;;;;;;6308249;22;20028;-76
2023/10/10 00:15:55;;;;;;;3.33;1.20;;;20.60;76.90;;;;;;6280219;22;20351;-76
2023/10/10 00:18:21;;;;;;;2.78;1.20;;;20.60;76.90;;;;;;6280826;22;20043;-76
2023/10/10 00:21:06;;;;;;;3.63;1.35;;;20.60;76.90;;;;;;6279541;22;20030;-76
2023/10/10 00:23:38;;;;;;;3.92;1.30;;;20.60;76.90;;;;;;6278977;22;20023;-76
2023/10/10 00:26:05;;;;;;;3.28;1.40;;;20.60;76.90;;;;;;6280627;22;20064;-76
2023/10/10 00:28:33;;;;;;;3.35;1.20;;;20.60;76.90;;;;;;6306256;22;20023;-75
2023/10/10 00:31:03;;;;;;;3.38;1.27;;;20.60;77.50;;;;;;6281040;22;20086;-76
2023/10/10 00:33:31;;;;;;;2.95;0.95;;;20.60;77.50;;;;;;6280802;22;20122;-76
2023/10/10 00:35:57;;;;;;;2.72;1.15;;;20.60;76.90;;;;;;6280301;22;20051;-76
2023/10/10 00:38:26;;;;;;;2.40;1.20;;;20.60;76.80;;;;;;6279896;22;20019;-76
2023/10/10 00:40:52;;;;;;;3.05;1.17;;;20.60;76.80;;;;;;6280567;22;20101;-77
2023/10/10 00:43:22;;;;;;;2.53;1.20;;;20.60;76.80;;;;;;6253953;22;20039;-76
2023/10/10 00:45:57;;;;;;;3.50;0.93;;;20.60;76.80;;;;;;6281438;22;20026;-77
2023/10/10 00:48:24;;;;;;;2.65;1.17;;;20.60;76.80;;;;;;6308235;22;20103;-76
2023/10/10 00:51:05;;;;;;;3.20;1.48;;;20.60;76.80;;;;;;6307357;22;20019;-77
2023/10/10 00:53:35;;;;;;;3.70;1.08;;;20.60;76.80;;;;;;6281075;22;20023;-77
2023/10/10 00:56:05;;;;;;;3.28;1.35;;;20.60;76.80;;;;;;6279773;22;20325;-77
2023/10/10 00:58:37;;;;;;;2.38;1.00;;;20.60;76.80;;;;;;6255908;22;20011;-77
2023/10/10 01:01:12;;;;;;;1.90;0.85;;;20.50;76.70;;;;;;6280634;22;20122;-77
2023/10/10 01:03:42;;;;;;;1.95;0.90;;;20.60;76.80;;;;;;6280217;22;20019;-77
2023/10/10 01:06:13;;;;;;;3.20;1.00;;;20.50;76.70;;;;;;6280457;22;20449;-77
2023/10/10 01:09:16;;;;;;;2.70;0.98;;;20.60;76.70;;;;;;6280613;22;20719;-78
2023/10/10 01:11:43;;;;;;;2.83;1.23;;;20.60;76.70;;;;;;6306983;22;20374;-78
2023/10/10 01:14:09;;;;;;;2.85;1.20;;;20.50;77.20;;;;;;6279777;22;20019;-79
2023/10/10 01:16:35;;;;;;;3.30;1.08;;;20.50;76.60;;;;;;6280709;22;20069;-79
2023/10/10 01:19:00;;;;;;;3.33;1.17;;;20.60;76.60;;;;;;6279954;22;20019;-79
2023/10/10 01:21:33;;;;;;;2.35;0.93;;;20.60;76.70;;;;;;6280346;22;20439;-79
2023/10/10 01:24:06;;;;;;;2.38;1.10;;;20.60;76.70;;;;;;6279994;22;20047;-78
2023/10/10 01:26:36;;;;;;;2.13;0.98;;;20.50;76.60;;;;;;6280109;22;20090;-78
2023/10/10 01:29:13;;;;;;;3.13;1.17;;;20.50;76.60;;;;;;6280321;22;20324;-78
2023/10/10 01:31:42;;;;;;;2.10;1.02;;;20.50;76.60;;;;;;6279328;22;20321;-78
2023/10/10 01:34:09;;;;;;;2.40;1.13;;;20.50;76.60;;;;;;6279748;22;20480;-78
2023/10/10 01:36:37;;;;;;;2.35;0.93;;;20.50;76.60;;;;;;6280379;22;20072;-78
2023/10/10 01:39:08;;;;;;;;;;;20.50;76.60;;;;;;6279931;22;20015;-78
2023/10/10 01:41:48;;;;;;;1.70;0.88;;;20.50;76.50;;;;;;6280964;22;19915;-78
2023/10/10 01:44:23;;;;;;;2.42;0.90;;;20.50;76.60;;;;;;6279674;22;20132;-79
2023/10/10 01:46:51;;;;;;;1.60;0.90;;;20.50;76.60;;;;;;6279438;22;20019;-79
2023/10/10 01:49:29;;;;;;;4.13;1.10;;;20.50;76.60;;;;;;6279695;22;20058;-79
2023/10/10 01:51:58;;;;;;;2.22;1.05;;;20.50;76.50;;;;;;6280431;22;20023;-79
2023/10/10 01:54:34;;;;;;;3.60;1.20;;;20.50;76.60;;;;;;6278378;22;20017;-79
2023/10/10 01:57:00;;;;;;;1.83;0.80;;;20.50;76.50;;;;;;6280165;22;20031;-78
2023/10/10 01:59:35;;;;;;;2.30;1.20;;;20.50;76.60;;;;;;6306476;22;20122;-78
2023/10/10 02:02:07;;;;;;;2.47;1.20;;;20.50;76.50;;;;;;6307322;22;20011;-78
2023/10/10 02:04:35;;;;;;;2.28;0.95;;;20.50;76.50;;;;;;6306922;22;20069;-78
2023/10/10 02:07:06;;;;;;;;;;;20.50;76.50;;;;;;6307145;22;20015;-78
2023/10/10 02:09:35;;;;;;;2.17;1.00;;;20.50;76.40;;;;;;6279730;22;19994;-77
2023/10/10 02:12:16;;;;;;;1.80;0.80;;;20.50;76.60;;;;;;6307248;22;20339;-78
2023/10/10 02:14:45;;;;;;;4.07;1.08;;;20.50;76.50;;;;;;6279343;22;20102;-77
2023/10/10 02:17:22;;;;;;;1.88;0.90;;;20.50;76.50;;;;;;6279579;22;20022;-77
2023/10/10 02:19:58;;;;;;;2.50;1.00;;;20.50;76.50;;;;;;6280206;22;20023;-77
2023/10/10 02:22:33;;;;;;;2.88;1.17;;;20.40;77.10;;;;;;6278590;22;20141;-77
2023/10/10 02:27:54;;;;;;;1.98;1.00;;;20.50;76.60;;;;;;6279063;22;20102;-76
2023/10/10 02:30:22;;;;;;;2.70;1.17;;;20.50;76.60;;;;;;6279633;22;20112;-76
2023/10/10 02:32:48;;;;;;;3.05;0.93;;;20.50;76.50;;;;;;6279966;22;20015;-76
2023/10/10 02:35:26;;;;;;;1.98;1.02;;;20.50;76.50;;;;;;6278798;22;20022;-76
2023/10/10 02:37:54;;;;;;;2.03;1.00;;;20.50;76.60;;;;;;6307439;22;20016;-76
2023/10/10 02:40:30;;;;;;;3.45;1.20;;;20.40;76.50;;;;;;6278633;22;20023;-77
2023/10/10 02:45:44;;;;;;;1.30;0.80;;;20.40;76.50;;;;;;6279473;22;20027;-76
2023/10/10 02:48:20;;;;;;;2.03;1.00;;;20.40;76.50;;;;;;6279174;22;20029;-76
2023/10/10 02:50:45;;;;;;;2.85;1.00;;;20.40;76.50;;;;;;6278921;22;20068;-77
2023/10/10 02:53:14;;;;;;;3.17;1.00;;;20.40;76.70;;;;;;6279355;22;20101;-77
2023/10/10 02:55:50;;;;;;;1.55;0.80;;;20.40;76.50;;;;;;6306246;22;20109;-76
2023/10/10 02:58:22;;;;;;;2.92;0.98;;;20.40;76.90;;;;;;6279334;22;20016;-77
2023/10/10 03:00:49;;;;;;;2.83;1.17;;;20.40;76.50;;;;;;6278216;22;20026;-76
2023/10/10 03:03:18;;;;;;;2.20;1.05;;;20.40;76.40;;;;;;6278447;22;20093;-76
2023/10/10 03:05:50;;;;;;;2.25;0.80;;;20.40;76.40;;;;;;6279826;22;20018;-76
2023/10/10 03:08:18;;;;;;;3.35;1.23;;;20.40;76.40;;;;;;6279530;22;20019;-76
2023/10/10 03:10:46;;;;;;;2.88;1.23;;;20.40;76.40;;;;;;6278202;22;20016;-76
2023/10/10 03:24:20;;;;;;;1.98;0.93;;;20.40;76.40;;;;;;6278199;22;20451;-77
2023/10/10 03:29:20;;;;;;;1.98;1.00;;;20.40;76.50;;;;;;6306429;22;20339;-77
2023/10/10 03:31:49;;;;;;;2.58;1.05;;;20.40;76.40;;;;;;6278704;22;20016;-77
2023/10/10 03:37:02;;;;;;;;;;;20.40;76.40;;;;;;6307779;22;20023;-78
2023/10/10 03:39:54;;;;;;;2.38;1.00;;;20.40;76.30;;;;;;6306025;22;19918;-77
2023/10/10 05:24:08;;;;;;;2.72;1.10;;;20.30;76.30;;;;;;6279301;22;20019;-76
2023/10/10 05:26:45;;;;;;;3.35;1.10;;;20.30;76.30;;;;;;6281709;22;20050;-77
2023/10/10 05:29:12;;;;;;;3.40;1.25;;;20.30;76.40;;;;;;6278969;22;20053;-77
2023/10/10 05:31:38;;;;;;;2.58;0.93;;;20.30;76.30;;;;;;6279979;22;20050;-76
2023/10/10 05:34:04;;;;;;;2.75;1.20;;;20.30;76.30;;;;;;6280008;22;20351;-76
2023/10/10 05:36:29;;;;;;;2.35;0.80;;;20.30;76.30;;;;;;6307402;22;20154;-71
2023/10/10 05:38:55;;;;;;;4.18;0.98;;;20.20;76.20;;;;;;6279718;22;20386;-71
2023/10/10 05:41:22;;;;;;;4.90;1.27;;;20.30;76.20;;;;;;6306108;22;20077;-71
2023/10/10 05:43:50;;;;;;;2.95;1.30;;;20.30;76.20;;;;;;6279673;22;20435;-71
2023/10/10 05:46:16;;;;;;;8.05;1.75;;;20.30;76.10;;;;;;6278904;22;20027;-72
2023/10/10 05:48:41;;;;;;;7.03;1.70;;;20.30;76.20;;;;;;6279805;22;20027;-68
2023/10/10 05:51:10;;;;;;;3.70;1.20;;;20.30;76.20;;;;;;6278601;22;20189;-71
2023/10/10 05:53:36;;;;;;;4.10;1.52;;;20.30;76.90;;;;;;6277346;22;20019;-70
2023/10/10 05:56:12;;;;;;;3.95;1.38;;;20.30;76.40;;;;;;6277866;22;20020;-71
2023/10/10 05:58:44;;;;;;;4.03;1.42;;;20.30;76.50;;;;;;6277679;22;20011;-72
2023/10/10 06:01:12;;;;;;;3.97;1.30;;;20.30;76.60;;;;;;6277216;22;20019;-70
2023/10/10 06:03:46;;;;;;;5.57;1.27;;;20.30;76.60;;;;;;6306688;22;20019;-70
2023/10/10 06:06:13;;;;;;;3.30;1.52;;;20.30;76.70;;;;;;6276812;22;20016;-69
2023/10/10 06:08:42;;;;;;;4.72;1.40;;;20.30;76.70;;;;;;6278389;22;20355;-70
2023/10/10 06:11:09;;;;;;;6.00;1.30;;;20.30;76.80;;;;;;6276001;22;20054;-72
2023/10/10 06:13:39;;;;;;;3.55;1.73;;;20.30;76.80;;;;;;6278092;22;20155;-71
2023/10/10 06:16:08;;;;;;;5.05;1.77;;;20.30;76.80;;;;;;6279421;22;20020;-71
2023/10/10 06:18:34;;;;;;;4.97;1.48;;;20.30;76.90;;;;;;6279877;22;20486;-69
2023/10/10 06:21:02;;;;;;;3.85;1.23;;;20.40;77.00;;;;;;6279686;22;20043;-70
2023/10/10 06:23:28;;;;;;;3.40;1.30;;;20.40;77.00;;;;;;6279454;22;20097;-68
2023/10/10 06:25:58;;;;;;;6.85;1.55;;;20.40;77.10;;;;;;6306747;22;20339;-71
2023/10/10 06:28:26;;;;;;;3.80;1.45;;;20.40;77.10;;;;;;6305828;22;20098;-74
2023/10/10 06:30:54;;;;;;;5.78;1.70;;;20.40;77.70;;;;;;6279315;22;20015;-73
2023/10/10 06:33:30;;;;;;;5.10;1.80;;;20.40;77.20;;;;;;6279238;22;20019;-74
2023/10/10 06:36:39;;;;;;;6.20;1.50;;;20.40;77.20;;;;;;6279515;22;20027;-74
2023/10/10 06:41:35;;;;;;;5.40;1.58;;;20.40;77.20;;;;;;6305650;22;20042;-68
2023/10/10 06:44:01;;;;;;;3.30;1.30;;;20.40;77.20;;;;;;6307370;22;20094;-73
2023/10/10 06:46:32;;;;;;;3.72;1.40;;;20.40;77.20;;;;;;6279304;22;20015;-72
2023/10/10 06:49:04;;;;;;;6.95;2.22;;;20.40;77.20;;;;;;6279111;22;20011;-75
2023/10/10 06:51:30;;;;;;;6.43;1.60;;;20.40;77.10;;;;;;6279463;22;20047;-70
2023/10/10 06:53:56;;;;;;;5.20;1.58;;;20.40;77.10;;;;;;6279609;22;20022;-71
2023/10/10 06:59:09;;;;;;;4.97;1.65;;;20.40;77.20;;;;;;6278833;22;20031;-71
2023/10/10 07:01:34;;;;;;;;;;;20.40;77.30;;;;;;6306152;22;20410;-70
2023/10/10 07:04:04;;;;;;;5.35;1.50;;;20.40;77.30;;;;;;6278740;22;20231;-71
2023/10/10 07:06:30;;;;;;;4.38;1.50;;;20.40;77.30;;;;;;6279050;22;20025;-71
2023/10/10 07:09:14;;;;;;;3.65;1.58;;;20.40;77.40;;;;;;6305064;22;20106;-70
2023/10/10 07:11:43;;;;;;;4.95;1.60;;;20.50;77.50;;;;;;6278326;22;20439;-71
2023/10/10 07:14:10;;;;;;;6.53;1.50;;;20.40;77.50;;;;;;6278748;22;20043;-71
2023/10/10 07:16:39;;;;;;;4.13;1.60;;;20.40;77.50;;;;;;6277745;22;20015;-75
2023/10/10 07:19:19;;;;;;;4.85;1.70;;;20.50;77.50;;;;;;6306329;22;20097;-74
2023/10/10 07:21:50;;;;;;;5.45;1.80;;;20.50;77.50;;;;;;6278541;22;20011;-74
2023/10/10 07:24:17;;;;;;;6.13;1.75;;;20.50;77.40;;;;;;6278064;22;20019;-74
2023/10/10 07:26:43;;;;;;;5.40;1.75;;;20.50;77.40;;;;;;6306914;22;20019;-73
2023/10/10 07:32:15;;;;;;;6.03;1.92;;;20.40;77.30;;;;;;6277872;22;20023;-73
2023/10/10 07:34:42;;;;;;;6.60;1.90;;;20.40;77.30;;;;;;6279503;22;20026;-74
2023/10/10 07:37:08;;;;;;;7.72;1.83;;;20.40;77.30;;;;;;6277959;22;20015;-74
2023/10/10 07:39:55;;;;;;;5.93;1.80;;;20.40;77.30;;;;;;6279466;22;20462;-74
2023/10/10 07:42:30;;;;;;;4.43;1.55;;;20.40;77.30;;;;;;6278787;22;20098;-73
2023/10/10 07:45:03;;;;;;;4.05;1.73;;;20.40;77.30;;;;;;6278642;22;20068;-73
2023/10/10 07:48:20;;;;;;;5.85;1.90;;;20.40;77.40;;;;;;6279474;22;20439;-74
2023/10/10 07:50:26;;;;;;;6.15;1.83;;;20.40;77.30;;;;;;6308164;22;20023;-73
2023/10/10 07:52:54;;;;;;;3.35;1.63;;;20.40;77.90;;;;;;6308147;22;20023;-73
2023/10/10 07:55:22;;;;;;;5.53;2.70;;;20.40;77.40;;;;;;6280719;22;20009;-73
2023/10/10 07:57:59;;;;;;;5.07;2.10;;;20.40;77.30;;;;;;6281454;22;20024;-74
2023/10/10 08:00:39;;;;;;;7.40;2.75;;;20.40;77.30;;;;;;6280918;22;20011;-75
2023/10/10 08:03:12;;;;;;;5.22;2.13;;;20.40;77.20;;;;;;6281048;22;20019;-75
2023/10/10 08:05:40;;;;;;;8.57;2.30;;;20.40;77.20;;;;;;6280206;22;20047;-73
2023/10/10 08:08:05;;;;;;;13.43;3.00;;;20.40;77.80;;;;;;6308570;22;20019;-74
2023/10/10 08:10:43;;;;;;;7.75;2.70;;;20.40;77.20;;;;;;6280178;22;20019;-73
2023/10/10 08:13:11;;;;;;;9.88;2.95;;;20.40;77.40;;;;;;6279440;22;20023;-72
2023/10/10 08:15:50;;;;;;;;;;;20.40;77.40;;;;;;6280648;22;20389;-72
2023/10/10 08:18:40;;;;;;;9.68;3.05;;;20.40;77.50;;;;;;6281235;22;19915;-74
2023/10/10 08:23:29;;;;;;;10.00;2.78;;;20.40;77.50;;;;;;6280716;22;20104;-71
2023/10/10 08:25:56;;;;;;;10.68;3.75;;;20.50;77.70;;;;;;6308537;22;20022;-73
2023/10/10 08:28:22;;;;;;;12.38;3.15;;;20.40;77.70;;;;;;6279172;22;20011;-73
2023/10/10 08:30:49;;;;;;;12.27;3.92;;;20.50;77.80;;;;;;6280848;22;20381;-74
2023/10/10 08:33:14;;;;;;;9.77;3.17;;;20.50;77.80;;;;;;6307560;22;20023;-75
2023/10/10 08:35:42;;;;;;;10.52;3.30;;;20.50;78.50;;;;;;6280777;22;20118;-71
2023/10/10 08:38:08;;;;;;;9.45;4.50;;;20.50;77.90;;;;;;6280783;22;20156;-70
2023/10/10 08:40:35;;;;;;;10.15;3.95;;;20.50;77.80;;;;;;6306956;22;20326;-70
2023/10/10 08:43:02;;;;;;;13.48;3.95;;;20.50;77.70;;;;;;6308361;22;20347;-70
2023/10/10 08:45:28;;;;;;;13.13;4.70;;;20.50;78.30;;;;;;6281361;22;20022;-70
2023/10/10 08:48:00;;;;;;;14.40;5.00;;;20.50;77.70;;;;;;6254711;22;20023;-70
2023/10/10 08:50:32;;;;;;;12.30;4.78;;;20.50;78.20;;;;;;6280626;22;20019;-71
2023/10/10 08:52:59;;;;;;;9.00;4.60;;;20.50;77.60;;;;;;6255999;22;20019;-71
2023/10/10 08:55:28;;;;;;;13.90;5.45;;;20.50;77.50;;;;;;6279340;22;20090;-71
2023/10/10 08:57:55;;;;;;;14.10;5.00;;;20.50;77.50;;;;;;6280726;22;20015;-70
2023/10/10 09:00:22;;;;;;;10.93;5.37;;;20.50;77.50;;;;;;6279958;22;20022;-70
2023/10/10 09:02:49;;;;;;;14.20;5.78;;;20.50;77.50;;;;;;6279568;22;20357;-71
2023/10/10 09:05:15;;;;;;;10.30;4.85;;;20.50;77.40;;;;;;6254962;22;20015;-70
2023/10/10 09:07:43;;;;;;;13.50;5.75;;;20.50;77.40;;;;;;6280581;22;20019;-70
2023/10/10 09:10:14;;;;;;;9.85;5.60;;;20.50;77.40;;;;;;6278801;22;20026;-70
2023/10/10 09:12:58;;;;;;;13.00;5.80;;;20.50;77.40;;;;;;6280649;22;20026;-69
2023/10/10 09:15:24;;;;;;;12.35;5.50;;;20.50;77.40;;;;;;6256359;22;20033;-70
2023/10/10 09:17:55;;;;;;;11.90;6.10;;;20.50;77.40;;;;;;6280720;22;20012;-71
2023/10/10 09:20:31;;;;;;;16.70;5.95;;;20.50;77.40;;;;;;6307837;22;20026;-69
2023/10/10 09:23:04;;;;;;;13.95;6.25;;;20.60;77.40;;;;;;6279544;22;20023;-70
2023/10/10 09:25:44;;;;;;;14.02;6.75;;;20.60;77.30;;;;;;6280883;22;20427;-70
2023/10/10 09:28:15;;;;;;;14.25;6.93;;;20.60;77.20;;;;;;6280188;22;20030;-70
2023/10/10 09:30:45;;;;;;;13.55;6.70;;;20.60;77.20;;;;;;6279465;22;20069;-71
2023/10/10 09:33:22;;;;;;;14.13;6.55;;;20.60;77.20;;;;;;6281597;22;20015;-74
2023/10/10 09:35:58;;;;;;;12.68;6.82;;;20.60;77.80;;;;;;6280815;22;20019;-69
2023/10/10 09:38:26;;;;;;;14.07;6.97;;;20.60;77.20;;;;;;6279227;22;20019;-69
2023/10/10 09:41:10;;;;;;;18.80;7.95;;;20.60;77.20;;;;;;6279904;22;20042;-69
2023/10/10 09:43:49;;;;;;;19.85;10.55;;;20.70;77.40;;;;;;6257649;22;20015;-70
2023/10/10 09:46:19;;;;;;;23.15;13.00;;;20.70;77.00;;;;;;6256316;22;20064;-72
2023/10/10 09:54:18;;;;;;;28.90;17.77;;;20.70;76.90;;;;;;6226549;22;20019;-86
2023/10/10 09:56:48;;;;;;;33.75;20.83;;;20.70;77.40;;;;;;6255443;22;20028;-70
2023/10/10 09:59:16;;;;;;;28.85;18.35;;;20.70;76.60;;;;;;6278530;22;20011;-70
2023/10/10 10:01:45;;;;;;;34.38;20.20;;;20.70;76.50;;;;;;6277267;22;20023;-72
2023/10/10 10:04:24;;;;;;;31.58;18.50;;;20.70;76.70;;;;;;6280527;22;20023;-71
2023/10/10 10:07:20;;;;;;;30.00;19.75;;;20.70;76.80;;;;;;6253976;22;20016;-71
2023/10/10 10:10:12;;;;;;;28.70;18.38;;;20.80;77.10;;;;;;6260375;22;20099;-70
2023/10/10 10:13:13;;;;;;;31.95;18.50;;;20.80;77.10;;;;;;6300067;22;20016;-71
2023/10/10 10:16:19;;;;;;;31.70;18.75;;;20.80;77.30;;;;;;6235291;22;20019;-73
2023/10/10 10:18:46;;;;;;;31.05;18.15;;;20.80;77.30;;;;;;6258693;22;20015;-72
2023/10/10 10:21:28;;;;;;;26.95;17.83;;;20.80;77.90;;;;;;6282387;22;20011;-72
2023/10/10 10:26:43;;;;;;;27.70;16.97;;;20.80;77.50;;;;;;6276568;22;20019;-72
2023/10/10 10:29:22;;;;;;;33.63;17.67;;;20.80;77.40;;;;;;6279360;22;20331;-73
2023/10/10 10:31:52;;;;;;;29.05;16.88;;;20.80;77.30;;;;;;6279798;22;20058;-73
2023/10/10 10:34:31;;;;;;;24.98;16.42;;;20.80;77.30;;;;;;6278829;22;20095;-73
2023/10/10 10:37:06;;;;;;;24.75;15.38;;;20.90;77.40;;;;;;6256342;22;20023;-72
2023/10/10 10:39:35;;;;;;;23.92;15.90;;;20.80;77.40;;;;;;6279220;22;20053;-72
2023/10/10 10:42:00;;;;;;;;;;;20.90;77.40;;;;;;6254087;22;20015;-72
2023/10/10 10:44:44;;;;;;;23.00;14.50;;;20.90;77.20;;;;;;6279251;22;19922;-69
2023/10/10 10:47:29;;;;;;;22.80;14.35;;;20.90;77.30;;;;;;6278316;22;20019;-73
2023/10/10 10:49:55;;;;;;;23.50;15.70;;;20.90;77.20;;;;;;6279547;22;20015;-73
2023/10/10 10:52:44;;;;;;;25.83;15.90;;;20.90;77.20;;;;;;6253927;22;20021;-70
2023/10/10 10:55:20;;;;;;;25.90;14.93;;;20.90;77.20;;;;;;6277920;22;20007;-72
2023/10/10 10:57:45;;;;;;;23.80;15.13;;;20.80;77.20;;;;;;6279611;22;20047;-72
2023/10/10 11:00:56;;;;;;;25.38;15.80;;;20.80;77.20;;;;;;6255031;22;20051;-72
2023/10/10 11:03:11;;;;;;;21.38;14.32;;;20.80;77.20;;;;;;6278296;22;20030;-73
2023/10/10 11:05:37;;;;;;;24.50;14.52;;;20.80;77.20;;;;;;6279525;22;20197;-72
2023/10/10 11:08:14;;;;;;;24.08;14.15;;;20.90;77.20;;;;;;6278678;22;20015;-73
2023/10/10 11:10:47;;;;;;;24.05;14.65;;;20.90;77.30;;;;;;6305532;22;20038;-71
2023/10/10 11:13:14;;;;;;;26.50;14.90;;;20.90;77.20;;;;;;6276804;22;20011;-66
2023/10/10 11:15:48;;;;;;;26.70;14.55;;;20.80;77.10;;;;;;6305142;22;20023;-72
2023/10/10 11:18:17;;;;;;;27.95;15.63;;;20.90;77.00;;;;;;6253754;22;20135;-72
2023/10/10 11:20:59;;;;;;;22.35;14.55;;;20.90;76.90;;;;;;6256427;22;20019;-72
2023/10/10 11:23:41;;;;;;;27.65;15.23;;;20.90;76.80;;;;;;6279340;22;20027;-71
2023/10/10 11:26:08;;;;;;;24.20;14.32;;;21.00;76.80;;;;;;6236073;22;20043;-72
2023/10/10 11:28:47;;;;;;;26.05;14.55;;;20.90;76.70;;;;;;6308703;22;20023;-77
2023/10/10 11:31:14;;;;;;;22.63;14.20;;;20.90;76.70;;;;;;6280164;22;20088;-73
2023/10/10 11:33:49;;;;;;;26.73;13.82;;;21.00;76.80;;;;;;6281226;22;20030;-76
2023/10/10 11:36:29;;;;;;;21.40;13.98;;;21.00;76.90;;;;;;6307895;22;20015;-78
2023/10/10 11:38:56;;;;;;;23.63;14.68;;;21.00;76.70;;;;;;6281210;22;20019;-73
2023/10/10 11:41:30;;;;;;;26.17;15.73;;;21.00;76.70;;;;;;6281399;22;20019;-69
2023/10/10 11:44:01;;;;;;;23.77;14.60;;;21.00;76.70;;;;;;6280353;22;20016;-70
2023/10/10 11:46:27;;;;;;;22.63;13.65;;;21.00;76.70;;;;;;6280803;22;20137;-70
2023/10/10 11:48:54;;;;;;;24.00;14.15;;;21.00;76.70;;;;;;6255899;22;20030;-70
2023/10/10 11:51:36;;;;;;;23.55;14.68;;;21.00;76.70;;;;;;6279670;22;20042;-70
2023/10/10 11:54:10;;;;;;;21.10;13.88;;;21.00;76.70;;;;;;6280920;22;20027;-71
2023/10/10 11:56:36;;;;;;;22.05;13.75;;;21.00;76.70;;;;;;6280135;22;20462;-71
2023/10/10 11:59:10;;;;;;;23.63;13.60;;;21.00;76.70;;;;;;6308005;22;20105;-70
2023/10/10 12:02:07;;;;;;;23.23;13.38;;;21.00;76.80;;;;;;6280351;22;20011;-70
2023/10/10 12:04:33;;;;;;;21.90;13.20;;;21.00;76.80;;;;;;6279972;22;20424;-70
2023/10/10 12:07:09;;;;;;;21.77;13.00;;;21.10;76.80;;;;;;6307881;22;20023;-70
2023/10/10 12:09:34;;;;;;;20.30;12.00;;;21.00;76.80;;;;;;6280714;22;20029;-71
2023/10/10 12:12:03;;;;;;;23.58;13.23;;;21.00;76.70;;;;;;6307208;22;20082;-70
2023/10/10 12:14:30;;;;;;;19.15;11.38;;;21.10;76.90;;;;;;6280636;22;20394;-70
2023/10/10 12:17:06;;;;;;;19.73;11.88;;;21.10;77.20;;;;;;6308193;22;20030;-72
2023/10/10 12:19:36;;;;;;;23.70;12.02;;;21.10;76.90;;;;;;6279749;22;20012;-71
2023/10/10 12:22:08;;;;;;;19.33;11.93;;;21.20;77.00;;;;;;6281061;22;20041;-69
2023/10/10 12:24:34;;;;;;;18.27;11.05;;;21.10;77.00;;;;;;6280446;22;20046;-71
2023/10/10 12:27:01;;;;;;;18.15;11.05;;;21.10;77.00;;;;;;6279604;22;20098;-75
2023/10/10 12:29:30;;;;;;;17.77;11.20;;;21.10;77.10;;;;;;6307835;22;20346;-72
2023/10/10 12:31:56;;;;;;;21.13;12.18;;;21.10;77.10;;;;;;6280694;22;20023;-69
2023/10/10 12:34:23;;;;;;;19.77;11.70;;;21.10;77.20;;;;;;6278821;22;20025;-69
2023/10/10 12:36:50;;;;;;;22.80;12.13;;;21.20;77.20;;;;;;6280379;22;20019;-69
2023/10/10 12:39:15;;;;;;;20.52;11.93;;;21.20;77.20;;;;;;6279622;22;20027;-68
2023/10/10 12:41:47;;;;;;;16.52;10.57;;;21.20;77.20;;;;;;6280621;22;20012;-68
2023/10/10 12:44:13;;;;;;;19.30;11.30;;;21.20;77.10;;;;;;6280467;22;20076;-68
2023/10/10 12:46:40;;;;;;;21.90;12.45;;;21.20;77.00;;;;;;6279856;22;20026;-68
2023/10/10 12:49:11;;;;;;;24.77;14.65;;;21.20;76.90;;;;;;6280900;22;20019;-68
2023/10/10 12:51:44;;;;;;;23.50;13.52;;;21.20;76.70;;;;;;6280507;22;20022;-68
2023/10/10 12:54:13;;;;;;;24.38;13.40;;;21.20;76.60;;;;;;6279474;22;20469;-69
2023/10/10 12:56:48;;;;;;;19.75;13.23;;;21.10;76.50;;;;;;6307928;22;20495;-68
2023/10/10 12:59:18;;;;;;;21.67;13.05;;;21.10;76.40;;;;;;6280588;22;20022;-69
2023/10/10 13:01:44;;;;;;;21.52;13.25;;;21.10;76.40;;;;;;6306410;22;20026;-70
2023/10/10 13:04:11;;;;;;;19.92;12.40;;;21.10;76.40;;;;;;6279440;22;20023;-70
2023/10/10 13:06:39;;;;;;;22.17;13.03;;;21.20;76.50;;;;;;6308104;22;20015;-70
2023/10/10 13:09:05;;;;;;;21.48;11.70;;;21.10;76.40;;;;;;6279134;22;20038;-70
2023/10/10 13:11:43;;;;;;;20.00;12.40;;;21.20;76.60;;;;;;6279540;22;20103;-70
2023/10/10 13:14:09;;;;;;;;;;;21.10;76.60;;;;;;6280470;22;20034;-70
2023/10/10 13:19:13;;;;;;;20.80;11.25;;;21.10;76.70;;;;;;6280049;22;20518;-70
2023/10/10 13:21:40;;;;;;;18.63;10.98;;;21.10;76.70;;;;;;6278983;22;20456;-72
2023/10/10 13:24:13;;;;;;;20.20;11.13;;;21.10;76.90;;;;;;6279847;22;20033;-70
2023/10/10 13:26:39;;;;;;;19.45;11.48;;;21.10;77.10;;;;;;6279967;22;20335;-73
2023/10/10 13:29:06;;;;;;;19.98;12.38;;;21.10;77.30;;;;;;6307221;22;20027;-76
2023/10/10 13:31:31;;;;;;;18.25;10.85;;;21.10;77.50;;;;;;6279703;22;20011;-73
2023/10/10 13:33:57;;;;;;;18.70;11.85;;;21.10;77.60;;;;;;6308100;22;20107;-73
2023/10/10 13:36:23;;;;;;;18.98;11.23;;;21.10;77.60;;;;;;6306158;22;20022;-72
2023/10/10 13:38:50;;;;;;;19.15;11.32;;;21.10;77.70;;;;;;6307901;22;20023;-72
2023/10/10 13:41:16;;;;;;;17.23;10.73;;;21.10;77.80;;;;;;6307207;22;20435;-72
2023/10/10 13:43:51;;;;;;;17.88;11.32;;;21.10;77.80;;;;;;6278942;22;20045;-73
2023/10/10 13:46:21;;;;;;;19.65;11.02;;;21.10;77.90;;;;;;6306563;22;20526;-73
2023/10/10 13:48:47;;;;;;;17.70;10.52;;;21.10;77.90;;;;;;6280298;22;20098;-72
2023/10/10 13:51:15;;;;;;;18.08;11.18;;;21.00;77.90;;;;;;6305340;22;20019;-71
2023/10/10 13:53:43;;;;;;;16.63;10.65;;;21.10;78.00;;;;;;6280663;22;20046;-71
2023/10/10 13:56:10;;;;;;;16.90;10.48;;;21.10;78.00;;;;;;6279367;22;20072;-71
2023/10/10 13:58:46;;;;;;;17.90;10.80;;;21.10;78.00;;;;;;6278902;22;20469;-71
2023/10/10 14:01:14;;;;;;;15.77;9.43;;;21.10;78.00;;;;;;6279217;22;20046;-70
2023/10/10 14:03:47;;;;;;;16.30;10.10;;;21.10;78.00;;;;;;6278767;22;20015;-71
2023/10/10 14:06:19;;;;;;;15.95;9.95;;;21.10;78.00;;;;;;6279504;22;20011;-72
2023/10/10 14:08:47;;;;;;;14.77;9.57;;;21.10;78.00;;;;;;6279897;22;20045;-76
2023/10/10 14:11:22;;;;;;;16.85;9.90;;;21.10;78.00;;;;;;6306084;22;20072;-74
2023/10/10 14:13:48;;;;;;;16.58;9.40;;;21.20;78.10;;;;;;6280132;22;20077;-77
2023/10/10 14:16:14;;;;;;;13.60;9.70;;;21.10;78.00;;;;;;6280451;22;20019;-76
2023/10/10 14:18:43;;;;;;;16.13;9.45;;;21.10;78.00;;;;;;6307943;22;20020;-75
2023/10/10 14:21:10;;;;;;;16.15;9.57;;;21.10;78.00;;;;;;6307235;22;20019;-71
2023/10/10 14:23:36;;;;;;;16.58;9.68;;;21.20;78.10;;;;;;6279296;22;20026;-71
2023/10/10 14:26:17;;;;;;;15.95;9.25;;;21.10;78.10;;;;;;6278512;22;20007;-72
2023/10/10 14:28:50;;;;;;;15.63;9.25;;;21.20;78.10;;;;;;6306641;22;20027;-71
2023/10/10 14:31:21;;;;;;;15.98;9.45;;;21.10;78.10;;;;;;6279204;22;20011;-72
2023/10/10 14:33:47;;;;;;;12.25;8.55;;;21.10;78.10;;;;;;6278573;22;20414;-75
2023/10/10 14:36:13;;;;;;;13.10;9.02;;;21.10;78.20;;;;;;6279381;22;20057;-75
2023/10/10 14:38:44;;;;;;;15.73;9.02;;;21.10;78.20;;;;;;6279576;22;20024;-75
2023/10/10 14:41:16;;;;;;;14.38;8.98;;;21.10;78.20;;;;;;6278315;22;20068;-72
2023/10/10 14:43:47;;;;;;;13.55;8.55;;;21.10;78.20;;;;;;6279145;22;20026;-70
2023/10/10 14:46:14;;;;;;;13.63;7.97;;;21.10;78.10;;;;;;6278483;22;20026;-70
2023/10/10 14:48:41;;;;;;;12.95;8.30;;;21.10;78.10;;;;;;6279617;22;20023;-72
2023/10/10 14:51:07;;;;;;;14.63;7.90;;;21.10;78.00;;;;;;6306685;22;20023;-72
2023/10/10 14:53:34;;;;;;;10.15;7.03;;;21.20;78.00;;;;;;6278883;22;20019;-72
2023/10/10 14:56:05;;;;;;;15.60;7.95;;;21.10;78.00;;;;;;6307171;22;20011;-71
2023/10/10 14:58:30;;;;;;;11.60;7.65;;;21.10;77.90;;;;;;6279161;22;20018;-71
2023/10/10 15:00:57;;;;;;;16.10;8.55;;;21.10;77.90;;;;;;6278496;22;20043;-72
2023/10/10 15:03:25;;;;;;;13.20;7.15;;;21.10;77.90;;;;;;6279028;22;20088;-72
2023/10/10 15:05:51;;;;;;;16.23;8.15;;;21.20;78.00;;;;;;6307250;22;20096;-81
2023/10/10 15:08:17;;;;;;;13.85;7.40;;;21.10;77.90;;;;;;6278507;22;20305;-70
2023/10/10 15:10:43;;;;;;;15.88;8.73;;;21.10;77.80;;;;;;6307060;22;20435;-70
2023/10/10 15:13:09;;;;;;;16.88;8.40;;;21.10;77.70;;;;;;6279148;22;20064;-74
2023/10/10 15:15:35;;;;;;;15.32;8.90;;;21.10;77.60;;;;;;6277925;22;20042;-69
2023/10/10 15:18:01;;;;;;;18.67;10.50;;;21.10;77.60;;;;;;6306303;22;20023;-70
2023/10/10 15:20:27;;;;;;;21.33;10.52;;;21.10;77.70;;;;;;6306583;22;20023;-71
2023/10/10 15:22:53;;;;;;;19.05;9.63;;;21.10;78.10;;;;;;6277886;22;20030;-70
2023/10/10 15:25:21;;;;;;;24.70;10.18;;;21.20;78.30;;;;;;6278320;22;20015;-70